Portada
METAR-TAF:

METAR-TAF

Aeroports :

Aeroport Internacional de Pequín

Pequín, Xina

latitud: 39-56N, longitud: 116-17E, altitud: 55 m

Observació

L'informe es va fer fa 38 minuts, a les 19:30 UTC
Vent 2 kt del Est/Nord-Est
Temperatura 21°C
Humitat 88%
Pressió 1007 hPa
Visibilitat 10 km o més
sense núvols per sota de 1500 mi sense presència de cumulonimbus.

METAR: ZBAA 181930Z 07001MPS CAVOK 21/19 Q1007 NOSIG

Hora: 04:08 (20:08 UTC)

Pronòstic

L'informe es va fer fa 4 hores i 38 minuts, a les 15:30 UTC
Pronòstic vàlid del 18 a les 18 UTC al 19 a les 18 UTC
Vent 8 kt del Sud
Visibilitat 10 km o més
sense núvols per sota de 1500 mi sense presència de cumulonimbus.

TAF: ZBAA 181530Z 1818/1918 18004MPS CAVOK TX32/1906Z TN18/1821Z

Observacions i pronòstics meteorològics de més de 4000 aeroports (METAR i TAF).

Les estacions disponibles són els punts grocs i vermells al mapa.

Posi el ratolí al punt desitjat per veure el nom de l'estació.

Feu clic per veure les observacions i els pronòstics meteorològics.

Per canviar el mapa: feu clic els botons verds amb una creu de color negre per apropar; al botó verd amb un guió per allunyar la imatge; o en les fletxes verdes per a mapes adjacents.


METAR-TAF: